createdAt,value
2017-11-08T00:02:07.295Z,17.35
2017-11-08T00:04:35.156Z,18.20
2017-11-08T00:07:02.183Z,21.02
2017-11-08T00:09:29.252Z,17.35
2017-11-08T00:14:29.559Z,18.02
2017-11-08T00:16:58.427Z,18.12
2017-11-08T00:19:26.142Z,20.70
2017-11-08T00:21:57.657Z,19.23
2017-11-08T00:24:30.302Z,17.87
2017-11-08T00:26:58.457Z,18.45
2017-11-08T00:29:25.457Z,18.73
2017-11-08T00:31:52.933Z,18.90
2017-11-08T00:36:51.030Z,17.30
2017-11-08T00:39:18.688Z,16.83
2017-11-08T00:41:46.495Z,15.93
2017-11-08T00:44:13.630Z,17.40
2017-11-08T00:46:40.425Z,17.73
2017-11-08T00:49:07.437Z,18.10
2017-11-08T00:51:34.425Z,18.48
2017-11-08T00:54:02.243Z,19.37
2017-11-08T00:56:33.667Z,19.98
2017-11-08T01:01:32.628Z,16.58
2017-11-08T01:04:00.184Z,16.70
2017-11-08T01:06:27.471Z,17.27
2017-11-08T01:08:55.363Z,17.55
2017-11-08T01:11:27.433Z,17.00
2017-11-08T01:13:55.828Z,17.27
2017-11-08T01:16:27.345Z,18.05
2017-11-08T01:18:54.876Z,17.60
2017-11-08T01:21:22.192Z,17.77
2017-11-08T01:23:52.961Z,18.85
2017-11-08T01:26:21.057Z,17.73
2017-11-08T01:28:51.449Z,17.62
2017-11-08T01:31:18.498Z,17.62
2017-11-08T01:36:17.313Z,16.70
2017-11-08T01:38:44.359Z,17.98
2017-11-08T01:41:18.671Z,19.27
2017-11-08T01:43:46.211Z,18.25
2017-11-08T01:48:49.252Z,16.48
2017-11-08T01:51:18.563Z,17.10
2017-11-08T01:56:20.952Z,17.15
2017-11-08T01:58:49.416Z,16.58
2017-11-08T02:01:17.406Z,15.45
2017-11-08T02:03:44.234Z,16.48
2017-11-08T02:06:11.307Z,17.05
2017-11-08T02:08:40.688Z,18.35
2017-11-08T02:11:07.515Z,16.92
2017-11-08T02:13:34.727Z,19.35
2017-11-08T02:16:01.721Z,18.27
2017-11-08T02:18:29.624Z,18.52
2017-11-08T02:20:56.827Z,19.40
2017-11-08T02:23:24.862Z,16.87
2017-11-08T02:25:55.125Z,17.05
2017-11-08T02:28:24.084Z,17.40
2017-11-08T02:30:54.048Z,16.25
2017-11-08T02:33:20.859Z,17.33
2017-11-08T02:35:48.425Z,17.58
2017-11-08T02:38:15.843Z,16.48
2017-11-08T02:40:43.769Z,15.82
2017-11-08T02:43:11.394Z,17.45
2017-11-08T02:45:43.013Z,16.60
2017-11-08T02:48:10.260Z,16.75
2017-11-08T02:50:37.738Z,19.15
2017-11-08T02:53:04.880Z,16.20
2017-11-08T02:55:32.948Z,16.83
2017-11-08T02:58:00.030Z,16.83
2017-11-08T03:00:28.611Z,17.20
2017-11-08T03:02:57.685Z,17.25
2017-11-08T03:05:25.142Z,17.92
2017-11-08T03:07:52.124Z,16.02
2017-11-08T03:10:18.939Z,16.40
2017-11-08T03:12:46.435Z,16.45
2017-11-08T03:17:48.343Z,17.62
2017-11-08T03:20:15.661Z,15.95
2017-11-08T03:22:44.455Z,16.48
2017-11-08T03:25:11.468Z,18.35
2017-11-08T03:27:39.223Z,17.83
2017-11-08T03:30:06.065Z,16.48
2017-11-08T03:32:33.599Z,17.73
2017-11-08T03:35:00.731Z,18.95
2017-11-08T03:37:28.827Z,19.58
2017-11-08T03:39:55.608Z,18.80
2017-11-08T03:42:22.729Z,16.58
2017-11-08T03:44:49.843Z,18.95
2017-11-08T03:47:17.683Z,19.25
2017-11-08T03:49:45.414Z,17.02
2017-11-08T03:52:12.567Z,17.55
2017-11-08T03:54:39.787Z,17.60
2017-11-08T03:57:07.756Z,16.83
2017-11-08T03:59:34.745Z,16.12
2017-11-08T04:02:02.895Z,16.33
2017-11-08T04:04:32.515Z,16.30
2017-11-08T04:06:59.613Z,16.90
2017-11-08T04:09:30.287Z,17.87
2017-11-08T04:11:59.071Z,16.02
2017-11-08T04:14:26.256Z,17.37
2017-11-08T04:16:53.059Z,18.25
2017-11-08T04:19:20.536Z,17.70
2017-11-08T04:21:47.667Z,16.67
2017-11-08T04:24:15.352Z,18.58
2017-11-08T04:26:42.401Z,18.37
2017-11-08T04:29:09.451Z,17.62
2017-11-08T04:31:36.516Z,16.60
2017-11-08T04:34:04.144Z,16.52
2017-11-08T04:36:31.150Z,18.08
2017-11-08T04:38:59.060Z,16.83
2017-11-08T04:41:26.148Z,16.98
2017-11-08T04:43:52.995Z,16.42
2017-11-08T04:46:20.232Z,17.02
2017-11-08T04:48:46.996Z,17.10
2017-11-08T04:51:14.209Z,18.37
2017-11-08T04:53:41.051Z,17.33
2017-11-08T04:56:08.165Z,16.45
2017-11-08T04:58:35.281Z,17.50
2017-11-08T05:01:03.180Z,16.48
2017-11-08T05:03:29.983Z,18.20
2017-11-08T05:05:59.903Z,17.87
2017-11-08T05:11:02.130Z,16.73
2017-11-08T05:16:00.469Z,15.75
2017-11-08T05:18:28.494Z,19.40
2017-11-08T05:20:57.559Z,17.75
2017-11-08T05:23:28.494Z,18.20
2017-11-08T05:25:56.714Z,18.30
2017-11-08T05:28:27.501Z,18.48
2017-11-08T05:30:55.908Z,17.98
2017-11-08T05:33:23.854Z,19.52
2017-11-08T05:35:51.907Z,15.68
2017-11-08T05:40:50.883Z,17.35
2017-11-08T05:43:17.691Z,16.85
2017-11-08T05:45:44.697Z,18.95
2017-11-08T05:48:11.917Z,16.67
2017-11-08T05:50:39.134Z,18.35
2017-11-08T05:53:06.163Z,17.80
2017-11-08T05:55:34.616Z,17.20
2017-11-08T05:58:02.545Z,17.05
2017-11-08T06:00:29.319Z,17.40
2017-11-08T06:02:57.076Z,17.95
2017-11-08T06:05:24.467Z,19.20
2017-11-08T06:07:52.218Z,19.98
2017-11-08T06:10:20.691Z,18.17
2017-11-08T06:12:47.892Z,19.17
2017-11-08T06:15:17.482Z,17.73
2017-11-08T06:17:45.008Z,17.67
2017-11-08T06:20:12.228Z,18.90
2017-11-08T06:22:39.803Z,16.80
2017-11-08T06:25:06.535Z,17.33
2017-11-08T06:27:34.007Z,17.58
2017-11-08T06:30:01.643Z,16.92
2017-11-08T06:32:28.471Z,17.45
2017-11-08T06:34:55.253Z,17.80
2017-11-08T06:37:22.391Z,16.33
2017-11-08T06:39:49.811Z,17.67
2017-11-08T06:42:16.832Z,17.62
2017-11-08T06:44:44.512Z,16.77
2017-11-08T06:52:15.043Z,17.65
2017-11-08T06:57:16.697Z,16.87
2017-11-08T06:59:43.784Z,18.55
2017-11-08T07:02:10.605Z,16.95
2017-11-08T07:04:39.880Z,16.85
2017-11-08T07:07:06.875Z,17.10
2017-11-08T07:09:33.942Z,17.55
2017-11-08T07:14:33.459Z,16.20
2017-11-08T07:17:00.704Z,15.40
2017-11-08T07:19:29.160Z,16.83
2017-11-08T07:21:55.921Z,16.17
2017-11-08T07:24:22.948Z,17.75
2017-11-08T07:26:50.027Z,17.37
2017-11-08T07:29:17.106Z,17.10
2017-11-08T07:31:44.279Z,16.50
2017-11-08T07:34:11.048Z,16.98
2017-11-08T07:39:08.881Z,16.60
2017-11-08T07:41:35.888Z,17.92
2017-11-08T07:44:02.970Z,17.10
2017-11-08T07:46:29.748Z,16.12
2017-11-08T07:48:56.948Z,17.90
2017-11-08T07:51:24.268Z,16.23
2017-11-08T07:53:51.796Z,18.23
2017-11-08T07:56:20.406Z,18.15
2017-11-08T07:58:48.856Z,18.83
2017-11-08T08:01:17.351Z,17.50
2017-11-08T08:03:44.123Z,17.80
2017-11-08T08:06:11.200Z,17.50
2017-11-08T08:08:41.532Z,18.80
2017-11-08T08:11:14.385Z,18.37
2017-11-08T08:13:41.396Z,17.37
2017-11-08T08:16:09.392Z,18.45
2017-11-08T08:18:36.491Z,16.80
2017-11-08T08:21:03.382Z,17.87
2017-11-08T08:23:30.535Z,17.85
2017-11-08T08:28:28.707Z,18.20
2017-11-08T08:30:55.455Z,17.58
2017-11-08T08:33:24.008Z,16.33
2017-11-08T08:35:51.607Z,18.10
2017-11-08T08:38:18.493Z,20.50
2017-11-08T08:40:45.559Z,20.48
2017-11-08T08:43:13.239Z,21.05
2017-11-08T08:45:40.699Z,19.73
2017-11-08T08:48:07.736Z,19.83
2017-11-08T08:50:35.624Z,18.77
2017-11-08T08:53:02.639Z,20.08
2017-11-08T08:55:30.318Z,19.60
2017-11-08T08:58:04.072Z,19.62
2017-11-08T09:00:30.832Z,17.05
2017-11-08T09:02:58.509Z,17.73
2017-11-08T09:05:25.761Z,17.58
2017-11-08T09:07:52.575Z,19.50
2017-11-08T09:10:20.264Z,17.05
2017-11-08T09:17:51.200Z,18.52
2017-11-08T09:20:27.640Z,19.73
2017-11-08T09:22:56.051Z,18.60
2017-11-08T09:30:38.153Z,18.52
2017-11-08T09:35:44.091Z,19.55
2017-11-08T09:50:54.824Z,18.48
2017-11-08T09:53:21.919Z,20.42
2017-11-08T09:55:52.240Z,19.75
2017-11-08T09:58:19.014Z,21.20
2017-11-08T10:00:51.620Z,21.00
2017-11-08T10:03:19.569Z,19.05
2017-11-08T10:05:46.436Z,19.20
2017-11-08T10:08:13.315Z,20.23
2017-11-08T10:10:47.287Z,21.37
2017-11-08T10:13:14.324Z,20.73
2017-11-08T10:18:14.106Z,21.40
2017-11-08T10:20:41.727Z,20.70
2017-11-08T10:23:09.564Z,21.35
2017-11-08T10:25:36.651Z,20.17
2017-11-08T10:28:03.961Z,21.08
2017-11-08T10:30:30.759Z,24.30
2017-11-08T10:32:59.188Z,20.58
2017-11-08T10:35:26.020Z,23.02
2017-11-08T10:37:54.747Z,21.55
2017-11-08T10:40:21.884Z,22.62
2017-11-08T10:42:49.329Z,22.33
2017-11-08T10:45:17.017Z,22.70
2017-11-08T10:47:44.596Z,22.40
2017-11-08T10:50:15.030Z,23.40
2017-11-08T10:52:42.177Z,23.52
2017-11-08T10:55:11.847Z,21.05
2017-11-08T10:57:42.228Z,21.20
2017-11-08T11:00:09.796Z,21.67
2017-11-08T11:02:36.833Z,23.70
2017-11-08T11:05:04.030Z,22.73
2017-11-08T11:15:05.093Z,22.73
2017-11-08T11:20:04.860Z,25.40
2017-11-08T11:22:31.948Z,25.30
2017-11-08T11:25:00.669Z,25.67
2017-11-08T11:27:27.451Z,25.58
2017-11-08T11:29:58.185Z,25.77
2017-11-08T11:32:29.723Z,25.62
2017-11-08T11:57:51.879Z,26.33
2017-11-08T12:00:19.393Z,28.67
2017-11-08T12:02:46.373Z,26.00
2017-11-08T12:05:13.976Z,25.88
2017-11-08T12:07:44.353Z,28.67
2017-11-08T12:10:12.724Z,28.10
2017-11-08T12:17:43.237Z,29.00
2017-11-08T12:22:42.638Z,27.25
2017-11-08T12:25:11.740Z,31.17
2017-11-08T12:27:42.272Z,25.85
2017-11-08T12:30:13.449Z,28.38
2017-11-08T12:35:11.289Z,27.42
2017-11-08T12:38:06.797Z,30.17
2017-11-08T12:40:33.568Z,28.27
2017-11-08T12:43:02.258Z,26.55
2017-11-08T12:45:42.588Z,28.10
2017-11-08T12:48:11.025Z,28.33
2017-11-08T12:50:37.816Z,28.67
2017-11-08T12:53:04.680Z,29.25
2017-11-08T12:58:06.896Z,30.60
2017-11-08T13:00:35.891Z,28.80
2017-11-08T13:03:04.248Z,30.42
2017-11-08T13:05:47.504Z,28.92
2017-11-08T13:10:51.188Z,30.60
2017-11-08T13:13:18.668Z,28.90
2017-11-08T13:15:46.195Z,29.65
2017-11-08T13:18:14.364Z,31.23
2017-11-08T13:20:41.355Z,30.58
2017-11-08T13:23:08.663Z,29.90
2017-11-08T13:25:35.700Z,28.60
2017-11-08T13:28:04.756Z,30.23
2017-11-08T13:30:32.421Z,28.10
2017-11-08T13:32:59.947Z,30.17
2017-11-08T13:35:26.749Z,31.70
2017-11-08T13:37:53.757Z,30.48
2017-11-08T13:40:20.523Z,30.88
2017-11-08T13:42:47.649Z,30.02
2017-11-08T13:45:14.419Z,32.40
2017-11-08T13:47:41.378Z,30.80
2017-11-08T13:50:08.176Z,29.42
2017-11-08T13:52:35.340Z,28.48
2017-11-08T13:55:02.327Z,30.48
2017-11-08T13:57:29.089Z,28.67
2017-11-08T13:59:59.396Z,28.98
2017-11-08T14:02:26.179Z,29.65
2017-11-08T14:04:53.427Z,30.08
2017-11-08T14:07:20.272Z,30.75
2017-11-08T14:09:47.363Z,29.45
2017-11-08T14:12:14.123Z,31.17
2017-11-08T14:14:41.580Z,29.37
2017-11-08T14:19:39.428Z,30.95
2017-11-08T14:22:06.185Z,32.40
2017-11-08T14:24:33.740Z,30.85
2017-11-08T14:27:00.513Z,33.25
2017-11-08T14:29:33.647Z,31.12
2017-11-08T14:32:01.346Z,27.98
2017-11-08T14:34:29.242Z,30.60
2017-11-08T14:36:57.027Z,30.85
2017-11-08T14:39:23.777Z,30.30
2017-11-08T14:41:50.539Z,28.27
2017-11-08T14:44:17.617Z,27.92
2017-11-08T14:46:45.811Z,29.60
2017-11-08T14:49:13.749Z,26.48
2017-11-08T14:51:40.536Z,27.13
2017-11-08T14:54:07.328Z,27.02
2017-11-08T14:56:37.943Z,28.17
2017-11-08T14:59:05.648Z,27.55
2017-11-08T15:01:32.762Z,28.35
2017-11-08T15:03:59.821Z,29.02
2017-11-08T15:06:26.585Z,27.55
2017-11-08T15:08:53.367Z,27.58
2017-11-08T15:11:20.160Z,28.50
2017-11-08T15:13:47.321Z,28.85
2017-11-08T15:16:16.865Z,27.00
2017-11-08T15:18:43.969Z,29.23
2017-11-08T15:21:11.646Z,29.98
2017-11-08T15:23:38.443Z,26.62
2017-11-08T15:26:06.091Z,27.40
2017-11-08T15:28:32.903Z,27.08
2017-11-08T15:30:59.948Z,29.23
2017-11-08T15:33:26.969Z,26.98
2017-11-08T15:35:53.704Z,29.90
2017-11-08T15:38:20.471Z,28.00
2017-11-08T15:40:52.081Z,29.20
2017-11-08T15:43:18.834Z,27.92
2017-11-08T15:45:45.621Z,29.33
2017-11-08T15:48:12.872Z,31.45
2017-11-08T15:50:39.651Z,28.10
2017-11-08T15:53:06.453Z,29.50
2017-11-08T15:55:34.923Z,29.00
2017-11-08T15:58:02.252Z,30.62
2017-11-08T16:00:29.338Z,29.45
2017-11-08T16:02:56.149Z,31.85
2017-11-08T16:05:22.935Z,30.02
2017-11-08T16:07:53.511Z,30.80
2017-11-08T16:10:22.149Z,30.33
2017-11-08T16:12:50.932Z,30.08
2017-11-08T16:15:17.778Z,30.48
2017-11-08T16:17:44.834Z,28.77
2017-11-08T16:20:16.816Z,28.27
2017-11-08T16:22:43.620Z,31.02
2017-11-08T16:25:10.351Z,28.55
2017-11-08T16:27:37.885Z,28.38
2017-11-08T16:30:04.663Z,36.50
2017-11-08T16:32:31.777Z,31.85
2017-11-08T16:35:00.398Z,30.00
2017-11-08T16:37:27.141Z,29.85
2017-11-08T16:47:28.565Z,28.27
2017-11-08T16:49:56.033Z,31.23
2017-11-08T16:52:22.829Z,29.42
2017-11-08T16:57:22.348Z,30.05
2017-11-08T17:02:20.845Z,29.63
2017-11-08T17:04:50.188Z,30.35
2017-11-08T17:07:17.644Z,30.52
2017-11-08T17:14:47.790Z,30.50
2017-11-08T17:19:47.225Z,31.02
2017-11-08T17:22:16.740Z,29.50
2017-11-08T17:24:43.496Z,31.17
2017-11-08T17:27:10.224Z,30.10
2017-11-08T17:29:38.593Z,32.33
2017-11-08T17:34:36.393Z,29.90
2017-11-08T17:37:07.850Z,31.87
2017-11-08T17:39:36.468Z,35.63
2017-11-08T17:42:04.858Z,32.38
2017-11-08T17:44:34.126Z,31.25
2017-11-08T17:47:02.724Z,33.17
2017-11-08T17:49:29.812Z,30.27
2017-11-08T17:51:58.432Z,32.30
2017-11-08T17:54:32.756Z,30.12
2017-11-08T18:04:39.755Z,31.20
2017-11-08T18:07:10.037Z,29.63
2017-11-08T18:12:11.354Z,31.95
2017-11-08T18:14:40.832Z,29.67
2017-11-08T18:27:21.540Z,32.97
2017-11-08T18:29:51.549Z,32.22
2017-11-08T18:32:20.905Z,30.25
2017-11-08T18:40:01.268Z,29.20
2017-11-08T18:50:13.252Z,33.15
2017-11-08T18:52:43.673Z,30.23
2017-11-08T19:02:51.483Z,28.95
2017-11-08T19:05:19.948Z,32.40
2017-11-08T19:10:20.679Z,30.30
2017-11-08T19:12:50.236Z,30.40
2017-11-08T19:20:30.420Z,31.25
2017-11-08T19:25:39.063Z,29.37
2017-11-08T19:28:09.442Z,30.60
2017-11-08T19:33:14.573Z,29.08
2017-11-08T19:40:51.629Z,32.17
2017-11-08T19:43:20.823Z,33.92
2017-11-08T19:45:50.353Z,32.75
2017-11-08T19:48:20.905Z,33.88
2017-11-08T19:50:49.324Z,33.40
2017-11-08T19:55:55.646Z,33.05
2017-11-08T20:06:02.601Z,31.37
2017-11-08T20:08:38.146Z,32.80
2017-11-08T20:13:39.779Z,32.92
2017-11-08T20:16:09.036Z,33.85
2017-11-08T20:21:07.700Z,33.13
2017-11-08T20:31:12.343Z,33.08
2017-11-08T20:33:39.183Z,32.67
2017-11-08T20:36:08.328Z,31.33
2017-11-08T20:46:14.583Z,32.75
2017-11-08T20:48:44.577Z,32.75
2017-11-08T20:51:15.289Z,32.53
2017-11-08T20:53:45.604Z,31.92
2017-11-08T20:58:44.252Z,32.17
2017-11-08T21:01:11.008Z,34.15
2017-11-08T21:03:37.761Z,36.10
2017-11-08T21:06:06.136Z,35.15
2017-11-08T21:11:05.508Z,34.50
2017-11-08T21:16:07.828Z,36.47
2017-11-08T21:23:41.539Z,34.50
2017-11-08T21:28:41.762Z,35.75
2017-11-08T21:31:10.032Z,33.35
2017-11-08T21:33:44.022Z,34.22
2017-11-08T21:41:21.919Z,33.28
2017-11-08T21:46:23.197Z,32.83
2017-11-08T21:48:53.826Z,35.00
2017-11-08T22:01:38.424Z,34.75
2017-11-08T22:11:46.576Z,35.53
2017-11-08T22:14:13.417Z,35.38
2017-11-08T22:16:44.692Z,33.47
2017-11-08T22:21:47.980Z,36.33
2017-11-08T22:24:17.468Z,35.05
2017-11-08T22:26:48.036Z,35.30
2017-11-08T22:36:52.387Z,35.00
2017-11-08T22:39:22.440Z,32.22
2017-11-08T22:41:49.573Z,32.88
2017-11-08T22:44:17.688Z,36.75
2017-11-08T22:49:19.006Z,34.42
2017-11-08T22:51:47.087Z,32.85
2017-11-08T22:59:19.548Z,39.03
2017-11-08T23:01:50.236Z,36.55
2017-11-08T23:04:19.139Z,38.03
2017-11-08T23:11:50.362Z,35.35
2017-11-08T23:14:20.332Z,34.78
2017-11-08T23:16:47.208Z,35.60
2017-11-08T23:21:44.975Z,35.47
2017-11-08T23:24:12.051Z,34.47
2017-11-08T23:29:10.621Z,35.75
2017-11-08T23:31:37.670Z,35.38
2017-11-08T23:34:04.462Z,37.40
2017-11-08T23:36:35.079Z,36.63
2017-11-08T23:41:39.368Z,34.95
2017-11-08T23:49:17.744Z,33.55
2017-11-08T23:54:23.580Z,36.03
